createdAt,value
2019-02-09T00:05:43.918Z,7.46
2019-02-09T00:15:43.368Z,7.46
2019-02-09T00:25:43.369Z,7.41
2019-02-09T00:35:43.300Z,7.36
2019-02-09T00:45:43.327Z,7.48
2019-02-09T00:55:43.309Z,7.58
2019-02-09T01:05:43.418Z,7.67
2019-02-09T01:15:43.395Z,7.68
2019-02-09T01:25:43.281Z,7.61
2019-02-09T01:35:44.127Z,7.18
2019-02-09T01:45:43.359Z,7.03
2019-02-09T01:55:43.298Z,6.98
2019-02-09T02:05:43.274Z,7.06
2019-02-09T02:15:43.271Z,7.03
2019-02-09T02:25:43.368Z,7.06
2019-02-09T02:35:45.355Z,7.29
2019-02-09T02:45:43.385Z,7.35
2019-02-09T02:55:43.418Z,7.25
2019-02-09T03:05:44.286Z,7.35
2019-02-09T03:15:45.770Z,7.23
2019-02-09T03:25:43.333Z,7.37
2019-02-09T03:35:43.235Z,7.48
2019-02-09T03:45:43.261Z,7.42
2019-02-09T03:55:43.379Z,7.36
2019-02-09T04:05:43.269Z,7.55
2019-02-09T04:15:43.326Z,7.46
2019-02-09T04:25:43.295Z,7.35
2019-02-09T04:35:43.249Z,7.40
2019-02-09T04:45:43.311Z,7.40
2019-02-09T04:55:43.326Z,7.40
2019-02-09T05:05:43.309Z,7.40
2019-02-09T05:15:43.295Z,7.33
2019-02-09T05:25:43.255Z,7.07
2019-02-09T05:35:44.131Z,7.07
2019-02-09T05:45:43.267Z,7.27
2019-02-09T05:55:43.322Z,7.47
2019-02-09T06:05:43.207Z,7.47
2019-02-09T06:15:44.078Z,7.44
2019-02-09T06:25:43.360Z,7.54
2019-02-09T06:35:43.266Z,7.63
2019-02-09T06:45:43.268Z,7.55
2019-02-09T06:55:43.286Z,7.41
2019-02-09T07:05:43.190Z,7.60
2019-02-09T07:15:43.324Z,7.62
2019-02-09T07:25:43.216Z,7.64
2019-02-09T07:35:43.897Z,7.60
2019-02-09T07:45:43.170Z,7.64
2019-02-09T07:55:43.266Z,7.59
2019-02-09T08:05:43.284Z,7.62
2019-02-09T08:15:43.188Z,7.58
2019-02-09T08:25:43.249Z,7.63
2019-02-09T08:35:43.279Z,7.61
2019-02-09T08:45:43.917Z,7.73
2019-02-09T08:55:43.254Z,7.70
2019-02-09T09:05:43.263Z,7.72
2019-02-09T09:15:43.226Z,7.82
2019-02-09T09:25:43.402Z,7.91
2019-02-09T09:35:43.165Z,7.96
2019-02-09T09:45:43.227Z,7.93
2019-02-09T09:55:43.395Z,7.68
2019-02-09T10:05:43.195Z,7.95
2019-02-09T10:15:43.196Z,8.11
2019-02-09T10:25:43.289Z,8.23
2019-02-09T10:35:43.228Z,8.36
2019-02-09T10:45:43.214Z,8.57
2019-02-09T10:55:43.212Z,8.60
2019-02-09T11:05:43.986Z,8.52
2019-02-09T11:15:43.183Z,8.40
2019-02-09T11:25:43.241Z,8.65
2019-02-09T11:35:43.226Z,8.86
2019-02-09T11:45:43.191Z,8.86
2019-02-09T11:55:44.155Z,8.85
2019-02-09T12:05:43.197Z,8.24
2019-02-09T12:15:43.133Z,8.69
2019-02-09T12:25:44.157Z,8.84
2019-02-09T12:35:43.925Z,9.19
2019-02-09T12:45:43.187Z,9.48
2019-02-09T12:55:43.237Z,9.65
2019-02-09T13:05:43.175Z,10.00
2019-02-09T13:15:44.190Z,9.85
2019-02-09T13:25:43.296Z,9.33
2019-02-09T13:35:43.147Z,9.65
2019-02-09T13:45:43.183Z,9.53
2019-02-09T13:55:43.152Z,9.28
2019-02-09T14:05:43.151Z,9.16
2019-02-09T14:15:43.196Z,8.34
2019-02-09T14:25:43.139Z,8.86
2019-02-09T14:35:43.101Z,9.00
2019-02-09T14:45:43.148Z,9.05
2019-02-09T14:55:43.137Z,9.22
2019-02-09T15:05:43.318Z,9.33
2019-02-09T15:15:43.119Z,9.36
2019-02-09T15:25:43.128Z,9.40
2019-02-09T15:35:43.196Z,9.34
2019-02-09T15:45:43.235Z,9.11
2019-02-09T15:55:43.094Z,9.03
2019-02-09T16:05:43.225Z,9.02
2019-02-09T16:15:43.149Z,9.08
2019-02-09T16:25:43.159Z,9.09
2019-02-09T16:35:43.160Z,9.03
2019-02-09T16:45:43.109Z,8.89
2019-02-09T16:55:43.174Z,8.86
2019-02-09T17:05:43.184Z,8.82
2019-02-09T17:15:43.178Z,8.67
2019-02-09T17:25:43.152Z,8.42
2019-02-09T17:35:43.146Z,8.23
2019-02-09T17:45:43.119Z,8.06
2019-02-09T17:55:43.100Z,7.98
2019-02-09T18:05:43.160Z,7.89
2019-02-09T18:15:43.824Z,7.33
2019-02-09T18:25:43.136Z,6.97
2019-02-09T18:35:43.085Z,7.05
2019-02-09T18:45:43.060Z,7.29
2019-02-09T18:55:43.134Z,7.50
2019-02-09T19:05:43.120Z,7.47
2019-02-09T19:15:44.992Z,7.57
2019-02-09T19:25:43.142Z,7.86
2019-02-09T19:35:43.225Z,7.97
2019-02-09T19:45:43.224Z,8.04
2019-02-09T19:55:43.826Z,8.08
2019-02-09T20:05:43.352Z,8.10
2019-02-09T20:15:44.023Z,8.14
2019-02-09T20:25:43.111Z,8.21
2019-02-09T20:35:43.179Z,8.29
2019-02-09T20:45:44.594Z,8.36
2019-02-09T20:55:43.111Z,8.38
2019-02-09T21:05:43.189Z,8.33
2019-02-09T21:15:43.122Z,8.35
2019-02-09T21:25:43.141Z,8.37
2019-02-09T21:35:44.275Z,8.35
2019-02-09T21:45:45.221Z,8.22
2019-02-09T21:55:43.132Z,8.20
2019-02-09T22:05:43.199Z,8.26
2019-02-09T22:15:43.161Z,8.26
2019-02-09T22:25:44.016Z,8.31
2019-02-09T22:35:43.083Z,8.30
2019-02-09T22:45:43.019Z,8.30
2019-02-09T22:55:43.421Z,8.24
2019-02-09T23:05:43.036Z,8.22
2019-02-09T23:15:43.163Z,8.31
2019-02-09T23:25:43.066Z,8.29
2019-02-09T23:35:43.066Z,8.31
2019-02-09T23:45:43.094Z,8.38
2019-02-09T23:55:43.106Z,8.40
